createdAt,value
2016-07-09T00:00:35.459Z,1012.16
2016-07-09T00:01:35.363Z,1012.11
2016-07-09T00:02:35.371Z,1012.14
2016-07-09T00:03:35.377Z,1012.17
2016-07-09T00:04:35.958Z,1012.18
2016-07-09T00:05:35.424Z,1012.16
2016-07-09T00:06:35.446Z,1012.13
2016-07-09T00:07:35.458Z,1012.18
2016-07-09T00:08:35.408Z,1012.21
2016-07-09T00:09:35.478Z,1012.23
2016-07-09T00:10:35.455Z,1012.22
2016-07-09T00:11:36.537Z,1012.2
2016-07-09T00:12:35.503Z,1012.23
2016-07-09T00:13:35.438Z,1012.23
2016-07-09T00:14:35.447Z,1012.22
2016-07-09T00:15:35.539Z,1012.25
2016-07-09T00:16:35.463Z,1012.28
2016-07-09T00:17:35.480Z,1012.28
2016-07-09T00:18:35.490Z,1012.34
2016-07-09T00:19:35.477Z,1012.24
2016-07-09T00:20:35.568Z,1012.25
2016-07-09T00:21:35.584Z,1012.31
2016-07-09T00:22:35.545Z,1012.29
2016-07-09T00:23:35.542Z,1012.3
2016-07-09T00:24:35.507Z,1012.28
2016-07-09T00:25:35.602Z,1012.25
2016-07-09T00:26:35.520Z,1012.26
2016-07-09T00:27:35.534Z,1012.25
2016-07-09T00:28:35.581Z,1012.25
2016-07-09T00:29:35.589Z,1012.25
2016-07-09T00:30:35.566Z,1012.29
2016-07-09T00:31:35.579Z,1012.33
2016-07-09T00:32:35.612Z,1012.27
2016-07-09T00:33:35.564Z,1012.23
2016-07-09T00:34:35.627Z,1012.21
2016-07-09T00:35:35.645Z,1012.3
2016-07-09T00:36:35.692Z,1012.3
2016-07-09T00:37:35.666Z,1012.24
2016-07-09T00:38:35.682Z,1012.29
2016-07-09T00:39:35.636Z,1012.26
2016-07-09T00:40:35.685Z,1012.28
2016-07-09T00:41:35.665Z,1012.3
2016-07-09T00:42:35.701Z,1012.35
2016-07-09T00:43:35.628Z,1012.34
2016-07-09T00:44:35.633Z,1012.33
2016-07-09T00:45:35.653Z,1012.37
2016-07-09T00:46:35.699Z,1012.36
2016-07-09T00:47:35.656Z,1012.38
2016-07-09T00:48:35.662Z,1012.44
2016-07-09T00:49:35.713Z,1012.34
2016-07-09T00:50:35.715Z,1012.36
2016-07-09T00:51:35.676Z,1012.34
2016-07-09T00:52:35.712Z,1012.36
2016-07-09T00:53:35.707Z,1012.36
2016-07-09T00:54:35.696Z,1012.35
2016-07-09T00:55:35.735Z,1012.35
2016-07-09T00:56:35.785Z,1012.35
2016-07-09T00:57:35.720Z,1012.34
2016-07-09T00:58:36.670Z,1012.35
2016-07-09T00:59:35.724Z,1012.37
2016-07-09T01:00:35.805Z,1012.35
2016-07-09T01:01:35.811Z,1012.38
2016-07-09T01:02:35.793Z,1012.34
2016-07-09T01:03:35.750Z,1012.32
2016-07-09T01:04:35.756Z,1012.38
2016-07-09T01:05:35.833Z,1012.36
2016-07-09T01:06:35.792Z,1012.33
2016-07-09T01:07:35.830Z,1012.37
2016-07-09T01:08:35.875Z,1012.38
2016-07-09T01:09:35.859Z,1012.4
2016-07-09T01:10:35.790Z,1012.41
2016-07-09T01:11:36.097Z,1012.42
2016-07-09T01:12:35.834Z,1012.42
2016-07-09T01:13:35.884Z,1012.43
2016-07-09T01:14:35.815Z,1012.4
2016-07-09T01:15:35.853Z,1012.38
2016-07-09T01:16:36.142Z,1012.36
2016-07-09T01:17:35.920Z,1012.37
2016-07-09T01:18:35.841Z,1012.46
2016-07-09T01:19:35.891Z,1012.4
2016-07-09T01:20:35.942Z,1012.4
2016-07-09T01:21:36.307Z,1012.4
2016-07-09T01:22:35.866Z,1012.41
2016-07-09T01:23:35.881Z,1012.38
2016-07-09T01:24:35.913Z,1012.38
2016-07-09T01:25:35.883Z,1012.43
2016-07-09T01:26:35.933Z,1012.4
2016-07-09T01:27:35.920Z,1012.45
2016-07-09T01:28:35.956Z,1012.41
2016-07-09T01:29:35.956Z,1012.42
2016-07-09T01:30:35.955Z,1012.42
2016-07-09T01:31:35.977Z,1012.43
2016-07-09T01:32:35.925Z,1012.36
2016-07-09T01:33:35.931Z,1012.42
2016-07-09T01:34:35.976Z,1012.37
2016-07-09T01:35:35.944Z,1012.44
2016-07-09T01:36:36.038Z,1012.42
2016-07-09T01:37:35.978Z,1012.39
2016-07-09T01:38:35.963Z,1012.4
2016-07-09T01:39:36.026Z,1012.4
2016-07-09T01:40:35.978Z,1012.42
2016-07-09T01:41:35.981Z,1012.4
2016-07-09T01:42:36.086Z,1012.45
2016-07-09T01:43:36.013Z,1012.46
2016-07-09T01:44:36.028Z,1012.44
2016-07-09T01:45:36.006Z,1012.41
2016-07-09T01:46:36.027Z,1012.43
2016-07-09T01:47:36.841Z,1012.41
2016-07-09T01:48:36.024Z,1012.44
2016-07-09T01:49:36.054Z,1012.49
2016-07-09T01:50:36.034Z,1012.48
2016-07-09T01:51:36.077Z,1012.47
2016-07-09T01:52:36.152Z,1012.44
2016-07-09T01:53:36.127Z,1012.42
2016-07-09T01:54:36.059Z,1012.39
2016-07-09T01:55:37.019Z,1012.43
2016-07-09T01:56:36.072Z,1012.45
2016-07-09T01:57:36.093Z,1012.45
2016-07-09T01:58:36.085Z,1012.48
2016-07-09T01:59:36.172Z,1012.5
2016-07-09T02:00:36.133Z,1012.52
2016-07-09T02:01:36.131Z,1012.49
2016-07-09T02:02:36.109Z,1012.53
2016-07-09T02:03:36.117Z,1012.51
2016-07-09T02:04:36.211Z,1012.54
2016-07-09T02:05:36.129Z,1012.56
2016-07-09T02:06:36.134Z,1012.56
2016-07-09T02:07:36.141Z,1012.55
2016-07-09T02:08:36.146Z,1012.57
2016-07-09T02:09:36.254Z,1012.58
2016-07-09T02:10:36.218Z,1012.59
2016-07-09T02:11:36.167Z,1012.56
2016-07-09T02:12:36.198Z,1012.57
2016-07-09T02:13:36.239Z,1012.63
2016-07-09T02:14:36.184Z,1012.59
2016-07-09T02:15:36.190Z,1012.57
2016-07-09T02:16:37.330Z,1012.61
2016-07-09T02:17:36.224Z,1012.61
2016-07-09T02:18:36.211Z,1012.55
2016-07-09T02:19:36.237Z,1012.53
2016-07-09T02:20:36.222Z,1012.51
2016-07-09T02:21:36.228Z,1012.5
2016-07-09T02:22:36.252Z,1012.49
2016-07-09T02:23:36.240Z,1012.47
2016-07-09T02:24:36.897Z,1012.44
2016-07-09T02:25:36.253Z,1012.44
2016-07-09T02:26:36.329Z,1012.41
2016-07-09T02:27:36.265Z,1012.41
2016-07-09T02:28:36.272Z,1012.37
2016-07-09T02:29:36.360Z,1012.41
2016-07-09T02:30:36.295Z,1012.45
2016-07-09T02:31:36.355Z,1012.4
2016-07-09T02:32:36.296Z,1012.44
2016-07-09T02:33:36.377Z,1012.44
2016-07-09T02:34:36.328Z,1012.51
2016-07-09T02:35:37.438Z,1012.41
2016-07-09T02:36:36.378Z,1012.43
2016-07-09T02:37:36.378Z,1012.42
2016-07-09T02:38:36.366Z,1012.45
2016-07-09T02:39:36.343Z,1012.43
2016-07-09T02:40:36.344Z,1012.44
2016-07-09T02:41:36.350Z,1012.43
2016-07-09T02:42:36.460Z,1012.45
2016-07-09T02:43:36.363Z,1012.47
2016-07-09T02:44:36.474Z,1012.43
2016-07-09T02:45:36.453Z,1012.48
2016-07-09T02:46:36.463Z,1012.46
2016-07-09T02:47:36.438Z,1012.48
2016-07-09T02:48:36.428Z,1012.47
2016-07-09T02:49:36.421Z,1012.42
2016-07-09T02:50:36.420Z,1012.49
2016-07-09T02:51:36.471Z,1012.49
2016-07-09T02:52:36.505Z,1012.47
2016-07-09T02:53:36.492Z,1012.43
2016-07-09T02:54:36.432Z,1012.42
2016-07-09T02:55:36.499Z,1012.4
2016-07-09T02:56:36.443Z,1012.4
2016-07-09T02:57:36.449Z,1012.4
2016-07-09T02:58:36.457Z,1012.38
2016-07-09T02:59:36.465Z,1012.43
2016-07-09T03:00:36.511Z,1012.4
2016-07-09T03:01:36.538Z,1012.41
2016-07-09T03:02:36.508Z,1012.41
2016-07-09T03:03:36.487Z,1012.39
2016-07-09T03:04:36.548Z,1012.37
2016-07-09T03:05:36.578Z,1012.36
2016-07-09T03:06:36.507Z,1012.37
2016-07-09T03:07:36.535Z,1012.39
2016-07-09T03:08:36.520Z,1012.41
2016-07-09T03:09:36.525Z,1012.42
2016-07-09T03:10:36.532Z,1012.46
2016-07-09T03:11:36.538Z,1012.46
2016-07-09T03:12:36.553Z,1012.51
2016-07-09T03:13:36.598Z,1012.5
2016-07-09T03:14:36.617Z,1012.48
2016-07-09T03:15:36.595Z,1012.48
2016-07-09T03:16:36.597Z,1012.54
2016-07-09T03:17:36.575Z,1012.53
2016-07-09T03:18:36.596Z,1012.52
2016-07-09T03:19:36.672Z,1012.53
2016-07-09T03:20:36.594Z,1012.51
2016-07-09T03:21:36.599Z,1012.57
2016-07-09T03:22:36.688Z,1012.55
2016-07-09T03:23:36.690Z,1012.6
2016-07-09T03:24:36.643Z,1012.61
2016-07-09T03:25:36.677Z,1012.6
2016-07-09T03:26:36.725Z,1012.63
2016-07-09T03:27:36.638Z,1012.61
2016-07-09T03:28:36.685Z,1012.61
2016-07-09T03:29:36.763Z,1012.63
2016-07-09T03:30:36.657Z,1012.61
2016-07-09T03:31:36.663Z,1012.61
2016-07-09T03:32:36.736Z,1012.58
2016-07-09T03:33:36.688Z,1012.63
2016-07-09T03:34:36.682Z,1012.63
2016-07-09T03:35:36.707Z,1012.63
2016-07-09T03:36:37.841Z,1012.63
2016-07-09T03:37:36.701Z,1012.61
2016-07-09T03:38:36.741Z,1012.63
2016-07-09T03:39:36.713Z,1012.65
2016-07-09T03:40:36.805Z,1012.63
2016-07-09T03:41:36.742Z,1012.7
2016-07-09T03:42:36.732Z,1012.71
2016-07-09T03:43:36.739Z,1012.71
2016-07-09T03:44:36.744Z,1012.7
2016-07-09T03:45:36.786Z,1012.72
2016-07-09T03:46:36.771Z,1012.75
2016-07-09T03:47:36.783Z,1012.79
2016-07-09T03:48:36.808Z,1012.86
2016-07-09T03:49:36.776Z,1012.85
2016-07-09T03:50:36.806Z,1012.84
2016-07-09T03:51:36.792Z,1012.85
2016-07-09T03:52:36.794Z,1012.88
2016-07-09T03:53:36.880Z,1012.87
2016-07-09T03:54:36.807Z,1012.83
2016-07-09T03:55:36.812Z,1012.85
2016-07-09T03:56:36.829Z,1012.84
2016-07-09T03:57:36.831Z,1012.85
2016-07-09T03:58:36.832Z,1012.85
2016-07-09T03:59:36.887Z,1012.83
2016-07-09T04:00:36.845Z,1012.84
2016-07-09T04:01:36.850Z,1012.87
2016-07-09T04:02:36.873Z,1012.88
2016-07-09T04:03:36.977Z,1012.85
2016-07-09T04:04:36.893Z,1012.9
2016-07-09T04:05:36.887Z,1012.9
2016-07-09T04:06:38.021Z,1012.91
2016-07-09T04:07:36.886Z,1012.96
2016-07-09T04:08:37.002Z,1012.92
2016-07-09T04:09:36.900Z,1012.96
2016-07-09T04:10:36.906Z,1012.94
2016-07-09T04:11:36.956Z,1012.98
2016-07-09T04:12:36.917Z,1012.96
2016-07-09T04:13:36.977Z,1012.94
2016-07-09T04:14:36.931Z,1012.93
2016-07-09T04:15:36.986Z,1012.95
2016-07-09T04:16:36.942Z,1012.96
2016-07-09T04:17:37.051Z,1012.96
2016-07-09T04:18:36.955Z,1012.92
2016-07-09T04:19:36.962Z,1012.93
2016-07-09T04:20:36.975Z,1012.96
2016-07-09T04:21:36.974Z,1012.95
2016-07-09T04:22:36.980Z,1012.98
2016-07-09T04:23:36.985Z,1012.99
2016-07-09T04:24:36.993Z,1013
2016-07-09T04:25:36.999Z,1013.04
2016-07-09T04:26:37.005Z,1013.04
2016-07-09T04:27:37.011Z,1013.07
2016-07-09T04:28:37.018Z,1013.01
2016-07-09T04:29:37.023Z,1013.02
2016-07-09T04:30:37.031Z,1013.04
2016-07-09T04:31:37.035Z,1013.04
2016-07-09T04:32:37.111Z,1013.06
2016-07-09T04:33:37.049Z,1013.03
2016-07-09T04:34:37.053Z,1013.08
2016-07-09T04:35:37.084Z,1013.04
2016-07-09T04:36:37.118Z,1013.02
2016-07-09T04:37:37.086Z,1013.04
2016-07-09T04:38:37.079Z,1013.05
2016-07-09T04:39:37.151Z,1013.08
2016-07-09T04:40:37.093Z,1013.06
2016-07-09T04:41:37.098Z,1013.07
2016-07-09T04:42:37.188Z,1013.12
2016-07-09T04:43:37.118Z,1013.15
2016-07-09T04:44:37.116Z,1013.2
2016-07-09T04:45:37.139Z,1013.18
2016-07-09T04:46:37.129Z,1013.19
2016-07-09T04:47:37.136Z,1013.15
2016-07-09T04:48:37.159Z,1013.15
2016-07-09T04:49:37.148Z,1013.1
2016-07-09T04:50:37.169Z,1013.06
2016-07-09T04:51:37.231Z,1013.07
2016-07-09T04:52:37.268Z,1013.08
2016-07-09T04:53:37.176Z,1013.16
2016-07-09T04:54:37.179Z,1013.15
2016-07-09T04:55:37.195Z,1013.19
2016-07-09T04:56:37.191Z,1013.16
2016-07-09T04:57:37.199Z,1013.13
2016-07-09T04:58:37.206Z,1013.15
2016-07-09T04:59:37.212Z,1013.2
2016-07-09T05:00:37.291Z,1013.15
2016-07-09T05:01:37.223Z,1013.23
2016-07-09T05:02:37.230Z,1013.14
2016-07-09T05:03:37.288Z,1013.16
2016-07-09T05:04:37.295Z,1013.13
2016-07-09T05:05:37.248Z,1013.15
2016-07-09T05:06:37.334Z,1013.15
2016-07-09T05:07:37.260Z,1013.14
2016-07-09T05:08:37.358Z,1013.11
2016-07-09T05:09:37.296Z,1013.15
2016-07-09T05:10:37.300Z,1013.21
2016-07-09T05:11:37.286Z,1013.2
2016-07-09T05:12:37.325Z,1013.27
2016-07-09T05:13:37.300Z,1013.22
2016-07-09T05:14:37.306Z,1013.25
2016-07-09T05:15:37.406Z,1013.25
2016-07-09T05:16:37.361Z,1013.25
2016-07-09T05:17:37.370Z,1013.3
2016-07-09T05:18:37.378Z,1013.27
2016-07-09T05:19:37.338Z,1013.28
2016-07-09T05:20:37.430Z,1013.3
2016-07-09T05:21:37.352Z,1013.32
2016-07-09T05:22:37.355Z,1013.3
2016-07-09T05:23:37.362Z,1013.31
2016-07-09T05:24:37.412Z,1013.3
2016-07-09T05:25:37.375Z,1013.32
2016-07-09T05:26:37.380Z,1013.35
2016-07-09T05:27:37.425Z,1013.35
2016-07-09T05:28:37.395Z,1013.31
2016-07-09T05:29:37.400Z,1013.36
2016-07-09T05:30:37.483Z,1013.33
2016-07-09T05:31:37.414Z,1013.31
2016-07-09T05:32:37.419Z,1013.32
2016-07-09T05:33:37.425Z,1013.34
2016-07-09T05:34:37.431Z,1013.31
2016-07-09T05:35:37.516Z,1013.27
2016-07-09T05:36:37.444Z,1013.23
2016-07-09T05:37:37.450Z,1013.27
2016-07-09T05:38:37.456Z,1013.27
2016-07-09T05:39:37.578Z,1013.26
2016-07-09T05:40:37.555Z,1013.31
2016-07-09T05:41:37.475Z,1013.34
2016-07-09T05:42:37.481Z,1013.34
2016-07-09T05:43:37.487Z,1013.37
2016-07-09T05:44:37.493Z,1013.36
2016-07-09T05:45:37.500Z,1013.39
2016-07-09T05:46:37.555Z,1013.38
2016-07-09T05:47:37.545Z,1013.42
2016-07-09T05:48:37.567Z,1013.41
2016-07-09T05:49:37.524Z,1013.46
2016-07-09T05:50:37.542Z,1013.5
2016-07-09T05:51:37.584Z,1013.52
2016-07-09T05:52:37.544Z,1013.49
2016-07-09T05:53:37.549Z,1013.5
2016-07-09T05:54:37.594Z,1013.51
2016-07-09T05:55:37.560Z,1013.49
2016-07-09T05:56:37.567Z,1013.5
2016-07-09T05:57:37.602Z,1013.5
2016-07-09T05:58:37.580Z,1013.54
2016-07-09T05:59:37.587Z,1013.56
2016-07-09T06:00:37.592Z,1013.62
2016-07-09T06:01:37.600Z,1013.52
2016-07-09T06:02:37.663Z,1013.57
2016-07-09T06:03:37.614Z,1013.54
2016-07-09T06:04:37.619Z,1013.58
2016-07-09T06:05:37.646Z,1013.61
2016-07-09T06:06:37.653Z,1013.56
2016-07-09T06:07:37.638Z,1013.55
2016-07-09T06:08:37.671Z,1013.56
2016-07-09T06:09:37.699Z,1013.55
2016-07-09T06:10:37.687Z,1013.61
2016-07-09T06:11:37.713Z,1013.57
2016-07-09T06:12:37.719Z,1013.54
2016-07-09T06:13:37.676Z,1013.55
2016-07-09T06:14:37.683Z,1013.53
2016-07-09T06:15:37.688Z,1013.77
2016-07-09T06:16:37.696Z,1013.67
2016-07-09T06:17:37.703Z,1013.74
2016-07-09T06:18:37.709Z,1013.68
2016-07-09T06:19:37.715Z,1013.72
2016-07-09T06:20:37.721Z,1013.76
2016-07-09T06:21:37.733Z,1013.7
2016-07-09T06:22:37.736Z,1013.71
2016-07-09T06:23:37.742Z,1013.71
2016-07-09T06:24:37.747Z,1013.68
2016-07-09T06:25:37.755Z,1013.65
2016-07-09T06:26:37.761Z,1013.64
2016-07-09T06:27:37.767Z,1013.62
2016-07-09T06:28:37.775Z,1013.67
2016-07-09T06:29:37.780Z,1013.66
2016-07-09T06:30:37.824Z,1013.92
2016-07-09T06:31:37.794Z,1013.72
2016-07-09T06:32:37.847Z,1013.73
2016-07-09T06:33:37.808Z,1013.69
2016-07-09T06:34:37.893Z,1013.7
2016-07-09T06:35:37.821Z,1013.69
2016-07-09T06:36:37.876Z,1013.71
2016-07-09T06:37:37.835Z,1013.68
2016-07-09T06:38:37.891Z,1013.7
2016-07-09T06:39:37.902Z,1013.68
2016-07-09T06:40:37.854Z,1013.66
2016-07-09T06:41:37.868Z,1013.66
2016-07-09T06:42:37.867Z,1013.66
2016-07-09T06:43:37.874Z,1013.7
2016-07-09T06:44:37.880Z,1013.7
2016-07-09T06:45:37.888Z,1013.7
2016-07-09T06:46:37.892Z,1013.73
2016-07-09T06:47:37.899Z,1013.71
2016-07-09T06:48:37.905Z,1013.74
2016-07-09T06:49:37.913Z,1013.73
2016-07-09T06:50:37.920Z,1013.7
2016-07-09T06:51:38.018Z,1013.68
2016-07-09T06:52:37.950Z,1013.62
2016-07-09T06:53:37.939Z,1013.6
2016-07-09T06:54:37.944Z,1013.64
2016-07-09T06:55:37.952Z,1013.67
2016-07-09T06:56:37.980Z,1013.63
2016-07-09T06:57:37.980Z,1013.68
2016-07-09T06:58:38.048Z,1013.69
2016-07-09T06:59:37.978Z,1013.7
2016-07-09T07:00:37.984Z,1013.72
2016-07-09T07:01:37.992Z,1013.68
2016-07-09T07:02:37.998Z,1013.75
2016-07-09T07:03:38.005Z,1013.66
2016-07-09T07:04:38.107Z,1013.71
2016-07-09T07:05:38.017Z,1013.74
2016-07-09T07:06:38.024Z,1013.76
2016-07-09T07:07:38.031Z,1013.84
2016-07-09T07:08:38.036Z,1013.8
2016-07-09T07:09:38.049Z,1013.78
2016-07-09T07:10:38.051Z,1013.74
2016-07-09T07:11:38.054Z,1013.69
2016-07-09T07:12:38.063Z,1013.7
2016-07-09T07:13:38.104Z,1013.76
2016-07-09T07:14:38.075Z,1013.77
2016-07-09T07:15:38.110Z,1013.75
2016-07-09T07:16:38.089Z,1013.75
2016-07-09T07:17:38.095Z,1013.73
2016-07-09T07:18:38.142Z,1013.77
2016-07-09T07:19:38.108Z,1013.84
2016-07-09T07:20:38.142Z,1013.87
2016-07-09T07:21:38.123Z,1013.87
2016-07-09T07:22:38.127Z,1013.84
2016-07-09T07:23:38.152Z,1013.87
2016-07-09T07:24:38.141Z,1013.83
2016-07-09T07:25:38.149Z,1013.89
2016-07-09T07:26:38.155Z,1013.85
2016-07-09T07:27:38.161Z,1013.9
2016-07-09T07:28:38.169Z,1014.36
2016-07-09T07:29:38.254Z,1013.96
2016-07-09T07:30:38.213Z,1013.86
2016-07-09T07:31:38.187Z,1014.1
2016-07-09T07:32:38.196Z,1013.89
2016-07-09T07:33:38.200Z,1013.86
2016-07-09T07:34:38.213Z,1014.2
2016-07-09T07:35:38.215Z,1014.01
2016-07-09T07:36:38.223Z,1014.32
2016-07-09T07:37:38.234Z,1013.91
2016-07-09T07:38:38.333Z,1014.2
2016-07-09T07:39:38.250Z,1014.17
2016-07-09T07:40:38.282Z,1014.59
2016-07-09T07:41:38.259Z,1014.42
2016-07-09T07:42:38.267Z,1014.4
2016-07-09T07:43:38.274Z,1013.88
2016-07-09T07:44:38.282Z,1014.01
2016-07-09T07:45:38.291Z,1013.94
2016-07-09T07:46:38.297Z,1013.93
2016-07-09T07:47:38.306Z,1013.91
2016-07-09T07:48:38.312Z,1013.97
2016-07-09T07:49:38.321Z,1013.84
2016-07-09T07:50:38.328Z,1013.83
2016-07-09T07:51:38.336Z,1013.83
2016-07-09T07:52:38.360Z,1013.78
2016-07-09T07:53:38.349Z,1013.79
2016-07-09T07:54:38.358Z,1013.85
2016-07-09T07:55:38.365Z,1013.79
2016-07-09T07:56:38.373Z,1013.79
2016-07-09T07:57:38.384Z,1013.76
2016-07-09T07:58:38.386Z,1013.8
2016-07-09T07:59:38.393Z,1013.82
2016-07-09T08:00:38.402Z,1013.82
2016-07-09T08:01:38.410Z,1013.87
2016-07-09T08:02:38.418Z,1013.87
2016-07-09T08:03:38.424Z,1013.86
2016-07-09T08:04:38.431Z,1013.86
2016-07-09T08:05:38.440Z,1013.87
2016-07-09T08:06:38.446Z,1013.84
2016-07-09T08:07:38.454Z,1013.89
2016-07-09T08:08:38.462Z,1013.9
2016-07-09T08:09:38.469Z,1013.86
2016-07-09T08:10:38.580Z,1013.87
2016-07-09T08:11:38.483Z,1013.84
2016-07-09T08:12:38.490Z,1013.84
2016-07-09T08:13:38.498Z,1013.86
2016-07-09T08:14:38.506Z,1013.85
2016-07-09T08:15:38.513Z,1013.87
2016-07-09T08:16:38.522Z,1013.88
2016-07-09T08:17:38.526Z,1013.94
2016-07-09T08:18:38.534Z,1013.94
2016-07-09T08:19:38.541Z,1014
2016-07-09T08:20:38.549Z,1013.94
2016-07-09T08:21:38.556Z,1013.94
2016-07-09T08:22:38.564Z,1013.99
2016-07-09T08:23:38.570Z,1013.98
2016-07-09T08:24:38.580Z,1013.98
2016-07-09T08:25:38.586Z,1014
2016-07-09T08:26:38.593Z,1014.03
2016-07-09T08:27:38.599Z,1014.02
2016-07-09T08:28:38.607Z,1014.08
2016-07-09T08:29:38.613Z,1014.01
2016-07-09T08:30:38.622Z,1014.02
2016-07-09T08:31:38.627Z,1014.01
2016-07-09T08:32:38.635Z,1014.02
2016-07-09T08:33:38.640Z,1014.05
2016-07-09T08:34:38.648Z,1014.08
2016-07-09T08:35:38.656Z,1014.1
2016-07-09T08:36:38.663Z,1014.12
2016-07-09T08:37:38.670Z,1014.13
2016-07-09T08:38:38.678Z,1014.08
2016-07-09T08:39:38.685Z,1014.1
2016-07-09T08:40:38.691Z,1014.06
2016-07-09T08:41:38.698Z,1014.05
2016-07-09T08:42:38.706Z,1014.11
2016-07-09T08:43:38.711Z,1014.13
2016-07-09T08:44:38.720Z,1014.1
2016-07-09T08:45:38.728Z,1014.05
2016-07-09T08:46:38.733Z,1014.11
2016-07-09T08:47:38.740Z,1014.12
2016-07-09T08:48:38.748Z,1014.13
2016-07-09T08:50:39.060Z,1014.2
2016-07-09T08:51:38.768Z,1014.27
2016-07-09T08:52:38.825Z,1014.25
2016-07-09T08:53:38.784Z,1014.24
2016-07-09T08:54:38.789Z,1014.23
2016-07-09T08:55:38.846Z,1014.21
2016-07-09T08:56:38.804Z,1014.23
2016-07-09T08:57:38.809Z,1014.23
2016-07-09T08:58:38.817Z,1014.23
2016-07-09T08:59:38.826Z,1014.22
2016-07-09T09:00:38.831Z,1014.17
2016-07-09T09:01:38.838Z,1014.18
2016-07-09T09:02:38.844Z,1014.18
2016-07-09T09:03:38.851Z,1014.17
2016-07-09T09:04:38.860Z,1014.18
2016-07-09T09:05:38.864Z,1014.17
2016-07-09T09:06:38.870Z,1014.24
2016-07-09T09:07:38.878Z,1014.23
2016-07-09T09:08:38.884Z,1014.25
2016-07-09T09:09:38.891Z,1014.22
2016-07-09T09:10:38.899Z,1014.17
2016-07-09T09:11:38.905Z,1014.19
2016-07-09T09:12:38.912Z,1014.21
2016-07-09T09:13:38.918Z,1014.16
2016-07-09T09:14:39.878Z,1014.12
2016-07-09T09:15:38.934Z,1014.15
2016-07-09T09:16:38.940Z,1014.11
2016-07-09T09:17:38.948Z,1014.17
2016-07-09T09:18:38.955Z,1014.16
2016-07-09T09:19:38.960Z,1014.14
2016-07-09T09:20:38.968Z,1014.17
2016-07-09T09:21:38.975Z,1014.14
2016-07-09T09:22:38.987Z,1014.17
2016-07-09T09:23:38.988Z,1014.19
2016-07-09T09:24:38.995Z,1014.21
2016-07-09T09:25:39.303Z,1014.19
2016-07-09T09:26:39.011Z,1014.15
2016-07-09T09:27:39.016Z,1014.11
2016-07-09T09:28:39.024Z,1014.11
2016-07-09T09:29:39.030Z,1014.12
2016-07-09T09:30:39.037Z,1014.14
2016-07-09T09:31:39.044Z,1014.14
2016-07-09T09:32:39.052Z,1014.11
2016-07-09T09:33:39.059Z,1014.13
2016-07-09T09:34:39.064Z,1014.17
2016-07-09T09:35:39.071Z,1014.17
2016-07-09T09:36:39.079Z,1014.11
2016-07-09T09:37:39.086Z,1014.04
2016-07-09T09:38:39.092Z,1014.01
2016-07-09T09:39:39.099Z,1014.07
2016-07-09T09:40:39.118Z,1014.07
2016-07-09T09:41:39.113Z,1014.08
2016-07-09T09:42:39.120Z,1013.99
2016-07-09T09:43:39.125Z,1014.03
2016-07-09T09:44:39.133Z,1014.03
2016-07-09T09:45:39.139Z,1013.99
2016-07-09T09:46:39.145Z,1013.98
2016-07-09T09:47:39.155Z,1013.95
2016-07-09T09:48:39.161Z,1013.99
2016-07-09T09:49:39.168Z,1013.97
2016-07-09T09:50:39.184Z,1013.92
2016-07-09T09:51:39.183Z,1013.87
2016-07-09T09:52:39.188Z,1013.82
2016-07-09T09:53:39.195Z,1013.83
2016-07-09T09:54:39.210Z,1013.77
2016-07-09T09:55:39.210Z,1013.72
2016-07-09T09:56:39.217Z,1013.71
2016-07-09T09:57:39.224Z,1013.7
2016-07-09T09:58:39.230Z,1013.78
2016-07-09T09:59:39.238Z,1013.82
2016-07-09T10:00:39.250Z,1013.82
2016-07-09T10:01:39.252Z,1013.89
2016-07-09T10:02:39.260Z,1013.91
2016-07-09T10:03:39.267Z,1013.87
2016-07-09T10:04:39.273Z,1013.92
2016-07-09T10:05:39.281Z,1013.88
2016-07-09T10:06:39.288Z,1013.88
2016-07-09T10:07:39.295Z,1013.88
2016-07-09T10:08:39.302Z,1013.84
2016-07-09T10:09:39.308Z,1013.88
2016-07-09T10:10:39.315Z,1013.92
2016-07-09T10:11:39.323Z,1013.95
2016-07-09T10:12:39.330Z,1013.87
2016-07-09T10:13:39.336Z,1013.92
2016-07-09T10:14:39.344Z,1013.92
2016-07-09T10:15:39.350Z,1013.88
2016-07-09T10:16:39.358Z,1013.94
2016-07-09T10:17:39.365Z,1013.87
2016-07-09T10:18:39.371Z,1013.85
2016-07-09T10:19:39.379Z,1013.82
2016-07-09T10:20:39.386Z,1013.89
2016-07-09T10:21:39.392Z,1013.87
2016-07-09T10:22:39.399Z,1013.87
2016-07-09T10:23:39.408Z,1013.91
2016-07-09T10:24:39.415Z,1013.93
2016-07-09T10:25:39.421Z,1013.94
2016-07-09T10:26:39.428Z,1013.91
2016-07-09T10:27:39.437Z,1013.9
2016-07-09T10:28:39.443Z,1013.96
2016-07-09T10:29:39.450Z,1013.91
2016-07-09T10:30:39.457Z,1013.98
2016-07-09T10:31:39.465Z,1013.94
2016-07-09T10:32:39.471Z,1013.98
2016-07-09T10:33:39.479Z,1014.01
2016-07-09T10:34:39.487Z,1014.09
2016-07-09T10:35:39.492Z,1014.06
2016-07-09T10:36:39.499Z,1014.02
2016-07-09T10:37:39.507Z,1014.05
2016-07-09T10:38:39.515Z,1014.12
2016-07-09T10:39:39.522Z,1014.03
2016-07-09T10:40:40.479Z,1013.97
2016-07-09T10:41:39.535Z,1013.99
2016-07-09T10:42:39.545Z,1014.05
2016-07-09T10:43:39.550Z,1014
2016-07-09T10:44:39.557Z,1014
2016-07-09T10:45:39.564Z,1013.98
2016-07-09T10:46:39.571Z,1014.06
2016-07-09T10:47:39.579Z,1013.97
2016-07-09T10:48:39.585Z,1013.92
2016-07-09T10:49:39.592Z,1013.94
2016-07-09T10:50:39.601Z,1013.93
2016-07-09T10:51:40.257Z,1013.96
2016-07-09T10:52:39.615Z,1013.88
2016-07-09T10:53:39.622Z,1013.87
2016-07-09T10:54:39.628Z,1013.83
2016-07-09T10:55:39.635Z,1013.81
2016-07-09T10:56:39.642Z,1013.79
2016-07-09T10:57:39.650Z,1013.78
2016-07-09T10:58:39.655Z,1013.78
2016-07-09T10:59:39.673Z,1013.78
2016-07-09T11:00:39.671Z,1013.77
2016-07-09T11:01:39.678Z,1013.74
2016-07-09T11:02:39.685Z,1013.66
2016-07-09T11:03:39.692Z,1013.66
2016-07-09T11:04:39.700Z,1013.6
2016-07-09T11:05:39.707Z,1013.71
2016-07-09T11:06:39.713Z,1013.77
2016-07-09T11:07:39.720Z,1013.75
2016-07-09T11:08:39.727Z,1013.66
2016-07-09T11:09:39.734Z,1013.71
2016-07-09T11:10:39.741Z,1013.73
2016-07-09T11:11:39.749Z,1013.76
2016-07-09T11:12:39.756Z,1013.78
2016-07-09T11:13:39.762Z,1013.65
2016-07-09T11:14:39.772Z,1013.63
2016-07-09T11:15:39.778Z,1013.64
2016-07-09T11:16:39.784Z,1013.65
2016-07-09T11:17:39.791Z,1013.63
2016-07-09T11:18:39.798Z,1013.65
2016-07-09T11:19:39.806Z,1013.68
2016-07-09T11:20:39.812Z,1013.69
2016-07-09T11:21:39.820Z,1013.73
2016-07-09T11:22:39.826Z,1013.71
2016-07-09T11:23:39.834Z,1013.72
2016-07-09T11:24:39.840Z,1013.72
2016-07-09T11:25:39.847Z,1013.74
2016-07-09T11:26:40.505Z,1013.8
2016-07-09T11:27:39.861Z,1013.71
2016-07-09T11:28:39.867Z,1013.78
2016-07-09T11:29:39.877Z,1013.67
2016-07-09T11:30:39.883Z,1013.62
2016-07-09T11:31:39.889Z,1013.61
2016-07-09T11:32:39.897Z,1013.59
2016-07-09T11:33:39.904Z,1013.6
2016-07-09T11:34:39.911Z,1013.63
2016-07-09T11:35:39.918Z,1013.61
2016-07-09T11:36:39.925Z,1013.7
2016-07-09T11:37:40.232Z,1013.7
2016-07-09T11:38:39.939Z,1013.64
2016-07-09T11:39:39.947Z,1013.61
2016-07-09T11:40:39.954Z,1013.59
2016-07-09T11:41:39.961Z,1013.69
2016-07-09T11:42:39.968Z,1013.71
2016-07-09T11:43:39.974Z,1013.72
2016-07-09T11:44:39.981Z,1013.7
2016-07-09T11:45:39.988Z,1013.7
2016-07-09T11:46:39.995Z,1013.71
2016-07-09T11:47:40.004Z,1013.68
2016-07-09T11:48:40.011Z,1013.65
2016-07-09T11:49:40.017Z,1013.68
2016-07-09T11:50:40.024Z,1013.62
2016-07-09T11:51:40.032Z,1013.64
2016-07-09T11:52:40.037Z,1013.67
2016-07-09T11:53:40.045Z,1013.63
2016-07-09T11:54:40.052Z,1013.62
2016-07-09T11:55:40.059Z,1013.62
2016-07-09T11:56:40.066Z,1013.67
2016-07-09T11:57:40.073Z,1013.63
2016-07-09T11:58:40.079Z,1013.69
2016-07-09T11:59:40.136Z,1013.69
2016-07-09T12:00:40.094Z,1013.62
2016-07-09T12:01:40.102Z,1013.63
2016-07-09T12:02:40.109Z,1013.67
2016-07-09T12:03:40.115Z,1013.64
2016-07-09T12:04:40.121Z,1013.63
2016-07-09T12:05:40.128Z,1013.67
2016-07-09T12:06:40.135Z,1013.68
2016-07-09T12:07:40.142Z,1013.55
2016-07-09T12:08:40.151Z,1013.57
2016-07-09T12:09:40.156Z,1013.57